SKBO2: Hominy C Bl Skiatook Lk Nr Skiatook, OK

Data processed at Sun May 28 2017 23:01


All information presented herein is the property of the government of the United States of America and may be revised or deleted at any time without prior notice.
Dissemination of this information without the expressed written consent of the Public Affairs Office, Tulsa District U.S. Army Corps of Engineers is strictly prohibited.
These data are gathered electronically and, as presented, have not undergone any form of quality control. These data are not guaranteed to be valid or correct.
Go to home page.
Go to station list.
Go to home page.

Upstream stations:

Downstream station:
Previous Day
Next Day
Current Day
    
SHEF ID:       SKBO2     Hominy Creek below Skiatook Lake
STATION TYPE:  

               PRECIP     STAGE  RIV-FLOW   VOLTAGE  BAT-LOAD
                   in        ft       cfs      volt      volt
              Ccp-Rev   Ccp-Rev   Ccp-Rev   Ccp-Rev   Ccp-Rev
(US/Central)
05/28 00:00      0.00     14.59      2245     13.37     13.29
05/28 01:00      0.00     14.64      2261     13.37     13.29
05/28 02:00      0.00     14.63      2258     13.37     13.29
05/28 03:00      0.00     14.57      2238     13.37     13.29
05/28 04:00      0.00     14.61      2251     13.37     13.29
05/28 05:00      0.00     14.59      2245     13.37     13.29
05/28 06:00      0.00     14.61      2251     13.37     13.29
05/28 07:00      0.00     14.63      2258     13.37     13.29
05/28 08:00      0.00     14.60      2248     13.37     13.29
05/28 09:00      0.00     14.62      2255     13.37     13.29
05/28 10:00      0.00     14.61      2251     13.37     13.29
05/28 11:00      0.00     14.58      2242     13.37     13.29
05/28 12:00      0.00     14.56      2235     13.37     13.29
05/28 13:00      0.00     14.58      2242     13.37     13.29
05/28 14:00      0.00     14.61      2251     13.37     13.29
05/28 15:00      0.00     14.60      2248     13.37     13.29
05/28 16:00      0.00     14.61      2251     13.37     13.29
05/28 17:00      0.00     14.61      2251     13.37     13.29
05/28 18:00      0.00     14.60      2248     13.37     13.29
05/28 19:00      0.00     14.59      2245     13.37     13.29
05/28 20:00      0.00     14.61      2251     13.29     13.21
05/28 21:00      0.00     14.62      2255     13.37     13.29
05/28 22:00      0.00     14.60      2248     13.37     13.29
05/28 23:00      0.00     14.59      2245     13.37     13.29